createdAt,value
2017-05-04T00:04:55.213Z,12.97
2017-05-04T00:07:49.640Z,12.91
2017-05-04T00:10:44.022Z,12.88
2017-05-04T00:13:38.565Z,12.85
2017-05-04T00:16:33.040Z,12.82
2017-05-04T00:19:27.417Z,12.78
2017-05-04T00:22:21.695Z,12.72
2017-05-04T00:25:16.105Z,12.70
2017-05-04T00:28:10.394Z,12.67
2017-05-04T00:31:05.788Z,12.64
2017-05-04T00:33:59.171Z,12.59
2017-05-04T00:36:53.559Z,12.54
2017-05-04T00:39:47.857Z,12.51
2017-05-04T00:42:42.252Z,12.48
2017-05-04T00:45:36.773Z,12.46
2017-05-04T00:51:25.337Z,12.46
2017-05-04T00:54:19.653Z,12.42
2017-05-04T00:57:14.026Z,12.40
2017-05-04T01:00:08.426Z,12.39
2017-05-04T01:03:02.788Z,12.37
2017-05-04T01:05:57.300Z,12.36
2017-05-04T01:08:51.720Z,12.36
2017-05-04T01:11:46.141Z,12.34
2017-05-04T01:14:40.539Z,12.32
2017-05-04T01:17:34.930Z,12.31
2017-05-04T01:20:29.218Z,12.31
2017-05-04T01:23:23.551Z,12.32
2017-05-04T01:26:17.839Z,12.29
2017-05-04T01:29:12.245Z,12.28
2017-05-04T01:32:06.663Z,12.28
2017-05-04T01:35:01.024Z,12.28
2017-05-04T01:37:55.429Z,12.23
2017-05-04T01:40:49.689Z,12.22
2017-05-04T01:43:44.028Z,12.20
2017-05-04T01:46:38.389Z,12.19
2017-05-04T01:49:32.771Z,12.18
2017-05-04T01:52:27.279Z,12.17
2017-05-04T01:55:21.579Z,12.14
2017-05-04T01:58:15.901Z,12.13
2017-05-04T02:01:10.206Z,12.12
2017-05-04T02:04:04.777Z,12.09
2017-05-04T02:06:59.142Z,12.08
2017-05-04T02:09:53.315Z,12.07
2017-05-04T02:12:47.640Z,12.06
2017-05-04T02:15:41.900Z,12.02
2017-05-04T02:18:36.319Z,11.99
2017-05-04T02:21:30.637Z,11.97
2017-05-04T02:24:24.975Z,11.94
2017-05-04T02:27:19.369Z,11.90
2017-05-04T02:30:13.626Z,11.87
2017-05-04T02:33:07.906Z,11.86
2017-05-04T02:36:02.349Z,11.86
2017-05-04T02:38:56.629Z,11.85
2017-05-04T02:41:50.931Z,11.85
2017-05-04T02:44:45.365Z,11.81
2017-05-04T02:47:39.732Z,11.79
2017-05-04T02:50:34.045Z,11.78
2017-05-04T02:53:28.297Z,11.75
2017-05-04T02:56:22.616Z,11.71
2017-05-04T02:59:16.915Z,11.64
2017-05-04T03:02:11.193Z,11.57
2017-05-04T03:05:05.490Z,11.50
2017-05-04T03:07:59.789Z,11.44
2017-05-04T03:10:54.092Z,11.38
2017-05-04T03:13:48.385Z,11.30
2017-05-04T03:16:42.614Z,11.24
2017-05-04T03:19:36.979Z,11.17
2017-05-04T03:22:31.172Z,11.14
2017-05-04T03:25:25.390Z,11.11
2017-05-04T03:28:19.733Z,11.06
2017-05-04T03:34:08.179Z,11.01
2017-05-04T03:37:02.573Z,10.96
2017-05-04T03:39:56.857Z,10.91
2017-05-04T03:42:51.074Z,10.87
2017-05-04T03:45:45.374Z,10.84
2017-05-04T03:48:39.541Z,10.77
2017-05-04T03:51:33.767Z,10.69
2017-05-04T03:57:22.294Z,10.63
2017-05-04T04:00:16.538Z,10.55
2017-05-04T04:06:05.144Z,10.47
2017-05-04T04:11:53.617Z,10.41
2017-05-04T04:14:47.747Z,10.36
2017-05-04T04:17:41.927Z,10.33
2017-05-04T04:20:36.134Z,10.31
2017-05-04T04:23:30.716Z,10.28
2017-05-04T04:26:24.860Z,10.25
2017-05-04T04:29:19.122Z,10.22
2017-05-04T04:32:13.337Z,10.17
2017-05-04T04:38:01.755Z,10.07
2017-05-04T04:40:55.913Z,10.06
2017-05-04T04:43:50.105Z,10.04
2017-05-04T04:46:44.357Z,10.03
2017-05-04T04:49:38.595Z,10.03
2017-05-04T04:52:32.789Z,10.01
2017-05-04T04:55:27.063Z,9.99
2017-05-04T05:01:15.494Z,9.96
2017-05-04T05:04:10.048Z,9.96
2017-05-04T05:07:04.311Z,9.96
2017-05-04T05:09:58.502Z,9.95
2017-05-04T05:12:52.977Z,9.94
2017-05-04T05:18:41.377Z,9.88
2017-05-04T05:21:35.598Z,9.89
2017-05-04T05:24:29.822Z,9.88
2017-05-04T05:27:23.981Z,9.90
2017-05-04T05:30:18.184Z,9.89
2017-05-04T05:36:07.192Z,9.91
2017-05-04T05:39:01.467Z,9.91
2017-05-04T05:41:55.737Z,9.94
2017-05-04T05:44:49.975Z,9.93
2017-05-04T05:47:44.226Z,9.95
2017-05-04T05:50:38.482Z,9.96
2017-05-04T05:53:32.704Z,9.96
2017-05-04T05:59:21.188Z,9.95
2017-05-04T06:02:15.403Z,9.92
2017-05-04T06:05:09.723Z,9.90
2017-05-04T06:08:03.945Z,9.89
2017-05-04T06:10:58.135Z,9.84
2017-05-04T06:13:52.605Z,9.84
2017-05-04T06:16:46.914Z,9.86
2017-05-04T06:19:41.093Z,9.86
2017-05-04T06:22:35.206Z,9.86
2017-05-04T06:25:29.346Z,9.85
2017-05-04T06:28:23.809Z,9.88
2017-05-04T06:31:18.059Z,9.86
2017-05-04T06:34:12.314Z,9.85
2017-05-04T06:37:06.570Z,9.85
2017-05-04T06:42:55.045Z,9.82
2017-05-04T06:48:43.464Z,9.81
2017-05-04T06:51:37.753Z,9.83
2017-05-04T06:57:26.258Z,9.95
2017-05-04T07:03:14.660Z,10.02
2017-05-04T07:06:08.926Z,10.07
2017-05-04T07:14:51.742Z,10.18
2017-05-04T07:17:46.011Z,10.21
2017-05-04T07:20:40.349Z,10.25
2017-05-04T07:23:34.701Z,10.26
2017-05-04T07:26:28.834Z,10.29
2017-05-04T07:29:23.181Z,10.29
2017-05-04T07:32:17.532Z,10.28
2017-05-04T07:35:11.852Z,10.27
2017-05-04T07:38:06.161Z,10.27
2017-05-04T07:41:00.468Z,10.28
2017-05-04T07:43:54.739Z,10.28
2017-05-04T07:46:48.979Z,10.30
2017-05-04T07:49:43.191Z,10.31
2017-05-04T07:52:37.626Z,10.32
2017-05-04T07:58:26.701Z,10.29
2017-05-04T08:01:20.866Z,10.29
2017-05-04T08:04:15.212Z,10.30
2017-05-04T08:10:03.873Z,10.37
2017-05-04T08:15:52.103Z,10.38
2017-05-04T08:18:46.280Z,10.38
2017-05-04T08:24:34.791Z,10.39
2017-05-04T08:27:29.156Z,10.40
2017-05-04T08:30:23.440Z,10.40
2017-05-04T08:33:17.704Z,10.41
2017-05-04T08:36:12.015Z,10.42
2017-05-04T08:39:06.243Z,10.44
2017-05-04T08:42:00.607Z,10.44
2017-05-04T08:44:54.831Z,10.44
2017-05-04T08:47:49.152Z,10.45
2017-05-04T08:50:43.233Z,10.43
2017-05-04T08:53:37.443Z,10.40
2017-05-04T08:56:31.781Z,10.37
2017-05-04T09:02:20.287Z,10.46
2017-05-04T09:05:14.516Z,10.46
2017-05-04T09:08:08.764Z,10.47
2017-05-04T09:11:03.074Z,10.52
2017-05-04T09:13:57.390Z,10.57
2017-05-04T09:16:51.687Z,10.61
2017-05-04T09:19:45.986Z,10.65
2017-05-04T09:22:40.272Z,10.67
2017-05-04T09:25:34.504Z,10.71
2017-05-04T09:28:28.731Z,10.75
2017-05-04T09:31:23.033Z,10.76
2017-05-04T09:34:17.371Z,10.73
2017-05-04T09:37:11.592Z,10.79
2017-05-04T09:40:05.834Z,10.83
2017-05-04T09:43:00.243Z,10.89
2017-05-04T09:45:54.581Z,10.92
2017-05-04T09:48:48.838Z,10.93
2017-05-04T09:54:37.288Z,10.93
2017-05-04T09:57:31.637Z,10.95
2017-05-04T10:00:25.845Z,10.95
2017-05-04T10:03:20.326Z,10.96
2017-05-04T10:06:14.668Z,10.96
2017-05-04T10:09:09.002Z,10.99
2017-05-04T10:12:03.312Z,11.01
2017-05-04T10:14:57.799Z,11.01
2017-05-04T10:17:52.189Z,10.99
2017-05-04T10:20:46.588Z,10.98
2017-05-04T10:23:40.960Z,10.98
2017-05-04T10:26:35.320Z,10.95
2017-05-04T10:32:24.047Z,10.88
2017-05-04T10:35:18.348Z,10.86
2017-05-04T10:38:12.720Z,10.86
2017-05-04T10:41:07.058Z,10.85
2017-05-04T10:44:01.339Z,10.85
2017-05-04T10:46:55.694Z,10.88
2017-05-04T10:49:49.946Z,10.89
2017-05-04T10:52:44.215Z,10.91
2017-05-04T10:55:38.480Z,10.94
2017-05-04T10:58:32.846Z,10.98
2017-05-04T11:01:27.074Z,11.00
2017-05-04T11:04:21.565Z,11.03
2017-05-04T11:07:15.889Z,11.03
2017-05-04T11:10:10.268Z,11.00
2017-05-04T11:13:04.876Z,10.99
2017-05-04T11:18:53.259Z,10.94
2017-05-04T11:21:47.501Z,10.93
2017-05-04T11:24:41.838Z,10.91
2017-05-04T11:27:36.058Z,10.92
2017-05-04T11:33:25.011Z,10.96
2017-05-04T11:36:19.300Z,10.98
2017-05-04T11:42:07.800Z,11.02
2017-05-04T11:45:02.076Z,11.05
2017-05-04T11:47:56.306Z,11.06
2017-05-04T11:53:45.082Z,11.10
2017-05-04T11:56:39.267Z,11.12
2017-05-04T11:59:33.526Z,11.10
2017-05-04T12:02:27.726Z,11.08
2017-05-04T12:05:21.974Z,11.08
2017-05-04T12:08:16.399Z,11.09
2017-05-04T12:11:10.651Z,11.10
2017-05-04T12:14:04.814Z,11.10
2017-05-04T12:16:59.185Z,11.11
2017-05-04T12:19:53.442Z,11.13
2017-05-04T12:25:42.449Z,11.17
2017-05-04T12:28:36.731Z,11.15
2017-05-04T12:31:31.003Z,11.16
2017-05-04T12:34:25.323Z,11.14
2017-05-04T12:37:19.632Z,11.13
2017-05-04T12:40:13.960Z,11.12
2017-05-04T12:43:08.336Z,11.13
2017-05-04T12:46:02.618Z,11.12
2017-05-04T12:48:56.887Z,11.08
2017-05-04T12:51:51.141Z,11.06
2017-05-04T12:54:45.471Z,11.06
2017-05-04T12:57:39.758Z,11.07
2017-05-04T13:00:34.044Z,11.07
2017-05-04T13:03:28.353Z,11.06
2017-05-04T13:09:16.945Z,11.06
2017-05-04T13:12:11.151Z,11.06
2017-05-04T13:15:05.329Z,11.06
2017-05-04T13:17:59.684Z,11.06
2017-05-04T13:20:53.993Z,11.06
2017-05-04T13:23:48.321Z,11.06
2017-05-04T13:26:42.548Z,11.07
2017-05-04T13:32:30.986Z,11.03
2017-05-04T13:35:25.272Z,11.02
2017-05-04T13:38:19.496Z,11.02
2017-05-04T13:41:13.773Z,11.03
2017-05-04T13:44:08.056Z,11.03
2017-05-04T13:47:02.333Z,11.03
2017-05-04T13:49:56.619Z,11.02
2017-05-04T13:55:44.990Z,11.00
2017-05-04T13:58:39.282Z,10.98
2017-05-04T14:01:33.562Z,10.97
2017-05-04T14:04:27.820Z,10.95
2017-05-04T14:07:22.102Z,10.92
2017-05-04T14:10:16.358Z,10.88
2017-05-04T14:13:10.615Z,10.88
2017-05-04T14:16:04.840Z,10.87
2017-05-04T14:18:59.075Z,10.83
2017-05-04T14:21:53.352Z,10.81
2017-05-04T14:24:47.621Z,10.81
2017-05-04T14:27:41.792Z,10.81
2017-05-04T14:30:36.034Z,10.80
2017-05-04T14:33:30.354Z,10.80
2017-05-04T14:36:24.629Z,10.78
2017-05-04T14:39:18.957Z,10.77
2017-05-04T14:45:07.840Z,10.75
2017-05-04T14:48:01.957Z,10.74
2017-05-04T14:50:56.200Z,10.71
2017-05-04T14:53:50.417Z,10.69
2017-05-04T14:56:44.736Z,10.69
2017-05-04T14:59:39.030Z,10.69
2017-05-04T15:05:27.563Z,10.66
2017-05-04T15:08:21.737Z,10.65
2017-05-04T15:11:15.966Z,10.65
2017-05-04T15:14:10.055Z,10.64
2017-05-04T15:17:04.297Z,10.63
2017-05-04T15:19:58.485Z,10.62
2017-05-04T15:22:53.029Z,10.62
2017-05-04T15:28:41.463Z,10.62
2017-05-04T15:31:35.744Z,10.63
2017-05-04T15:34:30.056Z,10.64
2017-05-04T15:37:24.162Z,10.64
2017-05-04T15:40:18.484Z,10.66
2017-05-04T15:43:12.594Z,10.66
2017-05-04T15:46:06.748Z,10.66
2017-05-04T15:49:00.965Z,10.65
2017-05-04T15:51:55.307Z,10.63
2017-05-04T15:54:49.567Z,10.64
2017-05-04T15:57:43.792Z,10.66
2017-05-04T16:00:37.967Z,10.67
2017-05-04T16:03:32.251Z,10.67
2017-05-04T16:06:26.412Z,10.67
2017-05-04T16:09:20.793Z,10.69
2017-05-04T16:12:15.054Z,10.71
2017-05-04T16:15:09.325Z,10.72
2017-05-04T16:18:03.461Z,10.73
2017-05-04T16:20:57.768Z,10.71
2017-05-04T16:26:46.219Z,10.69
2017-05-04T16:35:29.132Z,10.59
2017-05-04T16:38:23.452Z,10.59
2017-05-04T16:41:17.725Z,10.60
2017-05-04T16:44:11.971Z,10.59
2017-05-04T16:47:06.269Z,10.62
2017-05-04T16:50:00.501Z,10.62
2017-05-04T16:52:54.734Z,10.61
2017-05-04T16:55:49.033Z,10.61
2017-05-04T16:58:43.394Z,10.62
2017-05-04T17:01:37.680Z,10.61
2017-05-04T17:04:32.017Z,10.62
2017-05-04T17:10:20.871Z,10.61
2017-05-04T17:21:57.958Z,10.59
2017-05-04T17:27:46.394Z,10.58
2017-05-04T17:30:40.700Z,10.58
2017-05-04T17:33:34.908Z,10.58
2017-05-04T17:36:29.228Z,10.58
2017-05-04T17:39:23.321Z,10.59
2017-05-04T17:42:17.659Z,10.60
2017-05-04T17:45:11.894Z,10.61
2017-05-04T17:48:06.049Z,10.60
2017-05-04T17:53:54.698Z,10.58
2017-05-04T17:56:49.002Z,10.59
2017-05-04T17:59:43.126Z,10.58
2017-05-04T18:02:37.301Z,10.57
2017-05-04T18:05:31.616Z,10.58
2017-05-04T18:08:25.871Z,10.57
2017-05-04T18:11:20.080Z,10.57
2017-05-04T18:17:08.585Z,10.58
2017-05-04T18:25:51.380Z,10.58
2017-05-04T18:28:45.672Z,10.60
2017-05-04T18:31:39.910Z,10.59
2017-05-04T18:37:28.461Z,10.58
2017-05-04T18:43:16.917Z,10.57
2017-05-04T18:46:11.221Z,10.58
2017-05-04T18:49:05.395Z,10.59
2017-05-04T18:51:59.589Z,10.60
2017-05-04T18:57:48.157Z,10.60
2017-05-04T19:00:42.453Z,10.62
2017-05-04T19:06:30.754Z,10.63
2017-05-04T19:09:25.029Z,10.65
2017-05-04T19:12:19.309Z,10.66
2017-05-04T19:15:13.660Z,10.65
2017-05-04T19:18:07.853Z,10.65
2017-05-04T19:21:02.119Z,10.66
2017-05-04T19:23:56.290Z,10.65
2017-05-04T19:26:50.569Z,10.65
2017-05-04T19:29:44.831Z,10.64
2017-05-04T19:32:39.114Z,10.65
2017-05-04T19:35:33.438Z,10.67
2017-05-04T19:38:28.062Z,10.66
2017-05-04T19:41:22.189Z,10.66
2017-05-04T19:44:16.460Z,10.67
2017-05-04T19:47:10.775Z,10.67
2017-05-04T19:50:05.089Z,10.68
2017-05-04T19:52:59.287Z,10.68
2017-05-04T19:55:53.566Z,10.68
2017-05-04T20:01:42.051Z,10.69
2017-05-04T20:07:30.638Z,10.70
2017-05-04T20:10:24.816Z,10.71
2017-05-04T20:16:13.381Z,10.72
2017-05-04T20:19:07.645Z,10.72
2017-05-04T20:24:56.113Z,10.71
2017-05-04T20:30:44.611Z,10.71
2017-05-04T20:33:38.929Z,10.70
2017-05-04T20:36:33.223Z,10.71
2017-05-04T20:39:27.407Z,10.71
2017-05-04T20:45:16.005Z,10.71
2017-05-04T20:48:10.620Z,10.71
2017-05-04T20:51:04.847Z,10.71
2017-05-04T20:53:59.150Z,10.73
2017-05-04T20:56:53.398Z,10.73
2017-05-04T20:59:47.682Z,10.72
2017-05-04T21:02:42.021Z,10.72
2017-05-04T21:08:30.668Z,10.71
2017-05-04T21:11:24.857Z,10.71
2017-05-04T21:14:19.100Z,10.71
2017-05-04T21:17:13.518Z,10.70
2017-05-04T21:20:07.793Z,10.69
2017-05-04T21:23:01.982Z,10.69
2017-05-04T21:25:56.147Z,10.69
2017-05-04T21:28:50.412Z,10.69
2017-05-04T21:31:44.734Z,10.69
2017-05-04T21:34:39.023Z,10.68
2017-05-04T21:40:27.647Z,10.69
2017-05-04T21:43:21.899Z,10.69
2017-05-04T21:46:16.212Z,10.69
2017-05-04T21:49:10.532Z,10.68
2017-05-04T21:52:04.803Z,10.69
2017-05-04T21:54:59.163Z,10.69
2017-05-04T21:57:53.431Z,10.70
2017-05-04T22:00:47.682Z,10.70
2017-05-04T22:09:30.486Z,10.69
2017-05-04T22:12:24.688Z,10.69
2017-05-04T22:15:19.051Z,10.68
2017-05-04T22:18:13.299Z,10.66
2017-05-04T22:24:02.019Z,10.66
2017-05-04T22:26:56.343Z,10.66
2017-05-04T22:32:45.037Z,10.67
2017-05-04T22:35:39.262Z,10.68
2017-05-04T22:38:33.581Z,10.69
2017-05-04T22:47:16.571Z,10.68
2017-05-04T22:50:10.852Z,10.68
2017-05-04T22:53:05.186Z,10.68
2017-05-04T22:55:59.537Z,10.69
2017-05-04T22:58:53.754Z,10.68
2017-05-04T23:04:42.396Z,10.70
2017-05-04T23:07:36.740Z,10.70
2017-05-04T23:10:30.984Z,10.69
2017-05-04T23:16:19.634Z,10.65
2017-05-04T23:19:13.909Z,10.65
2017-05-04T23:22:08.365Z,10.64
2017-05-04T23:25:02.666Z,10.62
2017-05-04T23:27:56.949Z,10.60
2017-05-04T23:30:51.184Z,10.59
2017-05-04T23:33:45.468Z,10.57
2017-05-04T23:36:39.716Z,10.55
2017-05-04T23:39:34.046Z,10.53
2017-05-04T23:42:28.331Z,10.51
2017-05-04T23:45:22.673Z,10.49
2017-05-04T23:48:17.147Z,10.47
2017-05-04T23:51:11.419Z,10.46
2017-05-04T23:54:05.672Z,10.46
2017-05-04T23:56:59.852Z,10.47
2017-05-04T23:59:54.072Z,10.48
